Time;durP1;ratioP1;P1;durP2;ratioP2;P2;SDS_P1;SDS_P2;PMS_P1;PMS_P2;Temp;Humidity;BMP_temperature;BMP_pressure;BME280_temperature;BME280_humidity;BME280_pressure;Samples;Min_cycle;Max_cycle;Signal;HPM_P1;HPM_P2
2023/06/06 00:01:36;;;;;;;0.60;0.60;;;;;;;7.51;81.35;99646.75;5089818;28;20097;-80
2023/06/06 00:04:05;;;;;;;0.50;0.50;;;;;;;7.50;81.89;99645.94;5090008;28;20517;-79
2023/06/06 00:06:33;;;;;;;0.60;0.60;;;;;;;7.46;82.19;99643.88;5088817;28;20048;-78
2023/06/06 00:09:03;;;;;;;0.60;0.60;;;;;;;7.42;82.45;99648.00;5090070;28;20090;-78
2023/06/06 00:11:35;;;;;;;0.60;0.60;;;;;;;7.35;82.61;99639.97;5089970;28;20097;-77
2023/06/06 00:14:04;;;;;;;0.60;0.60;;;;;;;7.30;83.11;99645.97;5090056;28;20048;-78
2023/06/06 00:16:32;;;;;;;0.60;0.60;;;;;;;7.27;83.26;99645.56;5089873;28;20048;-78
2023/06/06 00:19:03;;;;;;;0.60;0.60;;;;;;;7.27;83.36;99651.75;5089931;28;20041;-78
2023/06/06 00:21:35;;;;;;;0.60;0.60;;;;;;;7.27;83.74;99645.56;5089423;28;20075;-78
2023/06/06 00:24:05;;;;;;;0.60;0.60;;;;;;;7.33;83.66;99645.53;5093311;28;20080;-77
2023/06/06 00:26:32;;;;;;;0.60;0.60;;;;;;;7.38;83.64;99650.28;5084448;28;20055;-79
2023/06/06 00:28:59;;;;;;;0.60;0.60;;;;;;;7.41;83.34;99660.63;5093689;28;20051;-79
2023/06/06 00:31:27;;;;;;;0.60;0.60;;;;;;;7.36;83.50;99653.16;5092529;28;20048;-79
2023/06/06 00:33:54;;;;;;;0.50;0.50;;;;;;;7.40;83.56;99658.97;5093344;28;20048;-79
2023/06/06 00:36:24;;;;;;;0.60;0.60;;;;;;;7.44;83.59;99670.13;5081855;28;20049;-79
2023/06/06 00:38:53;;;;;;;0.60;0.60;;;;;;;7.41;83.72;99657.94;5071991;28;20048;-80
2023/06/06 00:41:20;;;;;;;0.60;0.60;;;;;;;7.41;83.70;99659.78;5071972;28;20048;-79
2023/06/06 00:43:48;;;;;;;0.60;0.60;;;;;;;7.46;83.70;99665.38;5073315;28;20052;-78
2023/06/06 00:46:15;;;;;;;0.50;0.50;;;;;;;7.50;83.70;99666.63;5073034;28;20043;-79
2023/06/06 00:48:46;;;;;;;0.60;0.60;;;;;;;7.52;83.88;99664.53;5055111;28;20068;-78
2023/06/06 00:51:34;;;;;;;0.60;0.60;;;;;;;7.54;84.09;99667.84;5069895;28;20094;-79
2023/06/06 00:54:01;;;;;;;0.50;0.50;;;;;;;7.57;83.41;99672.78;5093115;28;20056;-79
2023/06/06 00:56:29;;;;;;;0.50;0.50;;;;;;;7.56;83.31;99666.59;5092655;28;20142;-78
2023/06/06 00:58:57;;;;;;;0.60;0.60;;;;;;;7.50;83.16;99669.31;5092958;28;20048;-78
2023/06/06 01:01:29;;;;;;;0.60;0.60;;;;;;;7.53;83.36;99668.88;5091614;28;20044;-79
2023/06/06 01:04:00;;;;;;;0.60;0.60;;;;;;;7.52;83.36;99675.25;5092310;28;20143;-77
2023/06/06 01:06:33;;;;;;;0.60;0.60;;;;;;;7.46;83.39;99668.88;5092674;28;20058;-79
2023/06/06 01:09:04;;;;;;;0.52;0.52;;;;;;;7.37;83.65;99665.59;5091532;28;20048;-78
2023/06/06 01:11:37;;;;;;;0.60;0.60;;;;;;;7.46;83.91;99686.84;5092666;28;20497;-79
2023/06/06 01:17:07;;;;;;;0.60;0.60;;;;;;;7.38;84.16;99679.84;5091816;28;20052;-79
2023/06/06 01:19:56;;;;;;;0.60;0.60;;;;;;;7.45;84.13;99685.22;5093069;28;20044;-80
2023/06/06 01:22:27;;;;;;;0.50;0.50;;;;;;;7.48;84.01;99677.56;5092671;28;20055;-79
2023/06/06 01:24:56;;;;;;;0.60;0.60;;;;;;;7.57;83.60;99686.22;5075003;28;20075;-79
2023/06/06 01:30:10;;;;;;;0.50;0.50;;;;;;;7.74;83.01;99682.06;5092635;28;20131;-79
2023/06/06 01:33:12;;;;;;;0.50;0.50;;;;;;;7.81;82.81;99690.13;5074315;28;20043;-79
2023/06/06 01:36:09;;;;;;;0.52;0.52;;;;;;;7.79;82.36;99690.31;5091989;28;20060;-78
2023/06/06 01:39:03;;;;;;;0.55;0.55;;;;;;;7.83;82.08;99688.06;5092007;28;20067;-79
2023/06/06 01:41:30;;;;;;;0.60;0.60;;;;;;;7.83;81.95;99688.06;5091163;28;20403;-79
2023/06/06 01:44:19;;;;;;;0.60;0.60;;;;;;;7.94;81.96;99698.16;5091092;28;20434;-79
2023/06/06 01:46:47;;;;;;;0.60;0.60;;;;;;;7.99;81.65;99697.53;5074151;28;20047;-78
2023/06/06 01:49:15;;;;;;;0.60;0.60;;;;;;;8.07;81.27;99697.28;5091165;28;20080;-78
2023/06/06 01:51:43;;;;;;;0.60;0.60;;;;;;;8.17;81.09;99699.53;5090652;28;20069;-76
2023/06/06 01:54:10;;;;;;;0.60;0.60;;;;;;;8.25;80.61;99699.28;5092077;28;20074;-79
2023/06/06 01:56:38;;;;;;;0.60;0.60;;;;;;;8.33;80.01;99691.00;5090466;28;20044;-78
2023/06/06 01:59:23;;;;;;;0.60;0.60;;;;;;;8.42;79.49;99703.19;5090868;28;20093;-78
2023/06/06 02:01:51;;;;;;;0.55;0.55;;;;;;;8.43;79.39;99695.94;5091021;28;20051;-78
2023/06/06 02:04:18;;;;;;;0.60;0.60;;;;;;;8.48;79.27;99696.13;5090648;28;20052;-79
2023/06/06 02:06:45;;;;;;;0.60;0.60;;;;;;;8.49;79.11;99705.88;5090489;28;20044;-78
2023/06/06 02:09:13;;;;;;;0.57;0.57;;;;;;;8.50;79.37;99709.38;5090294;28;20063;-78
2023/06/06 02:11:41;;;;;;;0.57;0.57;;;;;;;8.51;79.29;99709.16;5090283;28;20507;-78
2023/06/06 02:14:08;;;;;;;0.55;0.55;;;;;;;8.52;79.23;99702.75;5091780;28;20044;-76
2023/06/06 02:16:36;;;;;;;0.50;0.50;;;;;;;8.56;78.92;99714.72;5073366;28;20147;-78
2023/06/06 02:19:04;;;;;;;0.60;0.60;;;;;;;8.59;78.97;99703.53;5090237;28;20043;-78
2023/06/06 02:21:31;;;;;;;0.60;0.60;;;;;;;8.66;78.95;99698.94;5089920;28;20048;-78
2023/06/06 02:23:59;;;;;;;0.60;0.60;;;;;;;8.74;78.56;99700.56;5091041;28;20430;-78
2023/06/06 02:26:28;;;;;;;0.60;0.60;;;;;;;8.82;78.29;99708.38;5091616;28;20059;-78
2023/06/06 02:31:59;;;;;;;0.60;0.60;;;;;;;9.00;77.60;99713.03;5090025;28;20051;-78
2023/06/06 02:34:27;;;;;;;0.50;0.50;;;;;;;9.05;77.18;99710.50;5073233;28;20060;-78
2023/06/06 02:36:57;;;;;;;0.50;0.50;;;;;;;9.10;76.89;99717.94;5069423;28;20064;-79
2023/06/06 02:39:24;;;;;;;0.60;0.60;;;;;;;9.09;76.88;99708.22;5069719;28;20075;-78
2023/06/06 02:41:51;;;;;;;0.55;0.55;;;;;;;9.14;76.73;99713.78;5071195;28;20491;-79
2023/06/06 02:44:21;;;;;;;0.55;0.55;;;;;;;9.14;76.89;99700.31;5084184;28;20591;-77
2023/06/06 02:47:10;;;;;;;0.50;0.50;;;;;;;9.23;76.46;99714.34;5090388;28;20731;-78
2023/06/06 02:49:37;;;;;;;0.60;0.60;;;;;;;9.28;76.08;99707.25;5089716;28;20047;-77
2023/06/06 02:52:06;;;;;;;0.60;0.60;;;;;;;9.37;75.67;99713.22;5090015;28;20472;-77
2023/06/06 02:54:33;;;;;;;0.60;0.60;;;;;;;9.40;75.64;99711.94;5091075;28;20079;-78
2023/06/06 02:57:01;;;;;;;0.50;0.50;;;;;;;9.43;75.48;99723.09;5090791;28;20052;-77
2023/06/06 02:59:30;;;;;;;0.60;0.60;;;;;;;9.43;75.51;99719.56;5091569;28;20043;-79
2023/06/06 03:01:58;;;;;;;0.60;0.60;;;;;;;9.43;75.97;99720.41;5089833;28;20039;-78
2023/06/06 03:04:25;;;;;;;0.50;0.50;;;;;;;9.49;76.12;99724.06;5090762;28;20055;-78
2023/06/06 03:06:53;;;;;;;0.50;0.50;;;;;;;9.51;76.34;99733.59;5089615;28;20043;-79
2023/06/06 03:09:20;;;;;;;0.60;0.60;;;;;;;9.54;76.45;99735.88;5089237;28;20090;-77
2023/06/06 03:11:47;;;;;;;0.50;0.50;;;;;;;9.61;76.67;99743.88;5089767;28;20406;-79
2023/06/06 03:14:14;;;;;;;0.60;0.60;;;;;;;9.67;76.36;99737.63;5089519;28;20549;-77
2023/06/06 03:16:42;;;;;;;0.60;0.60;;;;;;;9.73;76.08;99742.13;5089126;28;20089;-78
2023/06/06 03:19:12;;;;;;;0.50;0.50;;;;;;;9.78;76.16;99736.06;5091177;28;20040;-78
2023/06/06 03:21:41;;;;;;;0.60;0.60;;;;;;;9.86;75.84;99746.56;5067329;28;20084;-78
2023/06/06 03:24:08;;;;;;;0.57;0.57;;;;;;;9.87;75.54;99736.59;5050886;28;20064;-77
2023/06/06 03:26:54;;;;;;;0.60;0.60;;;;;;;9.98;75.69;99747.50;5067626;28;20060;-78
2023/06/06 03:29:23;;;;;;;0.60;0.60;;;;;;;10.03;75.30;99741.44;5067623;28;20529;-78
2023/06/06 03:31:50;;;;;;;0.50;0.50;;;;;;;10.05;75.47;99739.34;5051081;28;20095;-79
2023/06/06 03:34:17;;;;;;;0.60;0.60;;;;;;;10.13;75.50;99746.31;5067699;28;20051;-78
2023/06/06 03:36:46;;;;;;;0.60;0.60;;;;;;;10.18;75.07;99739.19;5047344;28;20057;-79
2023/06/06 03:39:16;;;;;;;0.57;0.57;;;;;;;10.25;74.80;99746.38;5047439;28;20057;-78
2023/06/06 03:41:44;;;;;;;0.50;0.50;;;;;;;10.29;74.97;99748.44;5047290;28;20139;-78
2023/06/06 03:44:14;;;;;;;0.60;0.60;;;;;;;10.29;75.01;99759.22;5047263;28;20061;-78
2023/06/06 03:46:42;;;;;;;0.60;0.60;;;;;;;10.24;75.02;99742.88;5047280;28;20126;-79
2023/06/06 03:49:35;;;;;;;0.50;0.50;;;;;;;10.34;74.84;99754.00;5047333;28;20067;-79
2023/06/06 03:52:07;;;;;;;0.57;0.57;;;;;;;10.33;74.32;99741.56;5057889;28;20052;-78
2023/06/06 03:54:55;;;;;;;0.57;0.57;;;;;;;10.52;73.35;99755.03;5088594;28;20135;-80
2023/06/06 03:57:23;;;;;;;0.50;0.50;;;;;;;10.49;73.27;99750.09;5092905;28;20048;-78
2023/06/06 04:02:41;;;;;;;0.50;0.50;;;;;;;10.59;73.17;99748.50;5092571;28;20052;-79
2023/06/06 04:05:09;;;;;;;0.50;0.50;;;;;;;10.61;72.86;99753.69;5093404;28;20453;-79
2023/06/06 04:07:36;;;;;;;0.50;0.50;;;;;;;10.59;72.41;99745.00;5094059;28;20040;-78
2023/06/06 04:10:04;;;;;;;0.60;0.60;;;;;;;10.72;72.21;99738.59;5093190;28;20097;-79
2023/06/06 04:12:32;;;;;;;0.50;0.50;;;;;;;10.77;71.90;99747.66;5093200;28;20230;-78
2023/06/06 04:15:18;;;;;;;0.50;0.50;;;;;;;10.77;72.51;99738.75;5094775;28;20044;-78
2023/06/06 04:17:45;;;;;;;0.50;0.50;;;;;;;10.80;72.92;99738.28;5094396;28;20047;-79
2023/06/06 04:20:13;;;;;;;0.50;0.50;;;;;;;10.94;71.70;99736.22;5092443;28;20063;-79
2023/06/06 04:22:43;;;;;;;0.60;0.60;;;;;;;11.07;71.29;99736.88;5093936;28;20082;-79
2023/06/06 04:25:15;;;;;;;0.60;0.60;;;;;;;11.16;71.29;99734.66;5087636;28;20052;-78
2023/06/06 04:27:45;;;;;;;0.50;0.50;;;;;;;11.32;70.67;99732.34;5079318;28;20076;-78
2023/06/06 04:30:22;;;;;;;0.60;0.60;;;;;;;11.47;69.68;99738.97;5092878;28;20098;-79
2023/06/06 04:32:53;;;;;;;0.57;0.57;;;;;;;11.58;68.95;99734.63;5092392;28;20052;-78
2023/06/06 04:35:22;;;;;;;0.50;0.50;;;;;;;11.71;68.76;99742.50;5099546;28;20056;-77
2023/06/06 04:37:54;;;;;;;0.60;0.60;;;;;;;11.76;67.98;99743.72;5077063;28;20048;-77
2023/06/06 04:40:21;;;;;;;0.50;0.50;;;;;;;11.85;67.61;99744.97;5084794;28;20057;-76
2023/06/06 04:42:50;;;;;;;0.50;0.50;;;;;;;11.88;67.04;99725.63;5071569;28;20071;-78
2023/06/06 04:45:17;;;;;;;0.60;0.60;;;;;;;12.04;66.18;99733.03;5100738;28;20065;-78
2023/06/06 04:47:44;;;;;;;0.50;0.50;;;;;;;12.16;65.72;99734.91;5085069;28;20135;-79
2023/06/06 04:50:12;;;;;;;0.50;0.50;;;;;;;12.27;64.89;99734.06;5080119;28;20056;-80
2023/06/06 04:52:43;;;;;;;0.50;0.50;;;;;;;12.39;64.08;99725.94;5056089;28;20056;-79
2023/06/06 04:55:10;;;;;;;0.50;0.50;;;;;;;12.46;62.49;99727.44;5089805;28;20111;-79
2023/06/06 04:57:37;;;;;;;0.50;0.50;;;;;;;12.60;62.02;99729.88;5086850;28;20054;-78
2023/06/06 05:00:10;;;;;;;0.50;0.50;;;;;;;12.72;61.37;99725.25;5078252;28;20075;-79
2023/06/06 05:02:38;;;;;;;0.50;0.50;;;;;;;12.84;60.41;99723.31;5087477;28;20139;-77
2023/06/06 05:05:10;;;;;;;0.50;0.50;;;;;;;12.96;60.10;99715.97;5089607;28;20142;-79
2023/06/06 05:07:40;;;;;;;0.50;0.50;;;;;;;13.05;59.98;99718.28;5088482;28;20059;-79
2023/06/06 05:10:08;;;;;;;0.50;0.50;;;;;;;13.19;59.40;99725.03;5078995;28;20437;-78
2023/06/06 05:12:35;;;;;;;0.50;0.50;;;;;;;13.31;59.29;99725.00;5085417;28;20053;-79
2023/06/06 05:15:03;;;;;;;0.50;0.50;;;;;;;13.37;58.21;99732.16;5085225;28;20051;-79
2023/06/06 05:17:31;;;;;;;0.50;0.50;;;;;;;13.39;57.21;99727.28;5091124;28;20075;-79
2023/06/06 05:19:59;;;;;;;0.50;0.50;;;;;;;13.41;57.32;99728.69;5092542;28;20475;-79
2023/06/06 05:22:26;;;;;;;0.50;0.50;;;;;;;13.56;56.65;99730.03;5092132;28;20055;-80
2023/06/06 05:24:54;;;;;;;0.60;0.60;;;;;;;13.51;55.60;99705.53;5092097;28;20044;-80
2023/06/06 05:27:21;;;;;;;0.50;0.50;;;;;;;13.60;55.10;99721.16;5092002;28;20146;-80
2023/06/06 05:29:48;;;;;;;0.60;0.60;;;;;;;13.58;55.27;99696.16;5091184;28;20040;-80
2023/06/06 05:32:16;;;;;;;0.50;0.50;;;;;;;13.71;55.43;99705.03;5091982;28;20044;-81
2023/06/06 05:37:49;;;;;;;0.60;0.60;;;;;;;13.94;54.32;99715.69;5071859;28;20053;-80
2023/06/06 05:40:17;;;;;;;0.50;0.50;;;;;;;13.93;53.39;99715.97;5071858;28;20552;-81
2023/06/06 05:42:44;;;;;;;0.50;0.50;;;;;;;13.74;53.40;99694.50;5070413;28;20056;-80
2023/06/06 05:45:20;;;;;;;0.50;0.50;;;;;;;13.83;53.12;99720.16;5071379;28;20511;-80
2023/06/06 05:47:48;;;;;;;0.55;0.55;;;;;;;13.96;53.29;99713.56;5037853;28;20106;-79
2023/06/06 05:50:15;;;;;;;0.50;0.50;;;;;;;14.03;52.27;99705.25;5072678;28;20040;-80
2023/06/06 05:52:42;;;;;;;0.50;0.50;;;;;;;14.08;52.10;99721.59;5091385;28;20048;-80
2023/06/06 05:55:32;;;;;;;0.50;0.50;;;;;;;14.14;51.58;99704.31;5092103;28;20055;-80
2023/06/06 05:58:01;;;;;;;0.50;0.50;;;;;;;14.18;51.06;99704.59;5091301;28;20055;-80
2023/06/06 06:00:38;;;;;;;0.50;0.50;;;;;;;14.37;50.46;99724.16;5090457;28;20040;-80
2023/06/06 06:03:07;;;;;;;0.50;0.50;;;;;;;14.34;49.74;99714.63;5090583;28;20044;-80
2023/06/06 06:06:02;;;;;;;0.60;0.60;;;;;;;14.28;49.25;99700.16;5089523;28;20089;-80
2023/06/06 06:08:49;;;;;;;0.50;0.50;;;;;;;14.38;48.85;99710.34;5089504;28;20044;-80
2023/06/06 06:11:17;;;;;;;0.60;0.60;;;;;;;14.34;48.67;99702.94;5088393;28;20047;-81
2023/06/06 06:13:44;;;;;;;0.50;0.50;;;;;;;14.35;48.92;99691.81;5091162;28;20048;-82
2023/06/06 06:16:11;;;;;;;0.50;0.50;;;;;;;14.52;48.68;99694.47;5091087;28;20057;-82
2023/06/06 06:18:42;;;;;;;0.47;0.47;;;;;;;14.71;47.98;99705.84;5089852;28;20166;-80
2023/06/06 06:21:16;;;;;;;0.60;0.60;;;;;;;14.69;47.73;99697.97;5091075;28;20044;-80
2023/06/06 06:23:47;;;;;;;0.50;0.50;;;;;;;14.87;47.74;99709.56;5091348;28;20573;-81
2023/06/06 06:26:16;;;;;;;0.47;0.47;;;;;;;14.91;46.90;99702.53;5084432;28;20048;-81
2023/06/06 06:28:45;;;;;;;0.52;0.52;;;;;;;14.91;46.40;99711.53;5058758;28;20121;-80
2023/06/06 06:31:15;;;;;;;0.50;0.50;;;;;;;14.93;46.44;99712.06;5080247;28;20135;-79
2023/06/06 06:33:42;;;;;;;0.50;0.50;;;;;;;15.08;46.64;99711.41;5081919;28;20060;-81
2023/06/06 06:36:09;;;;;;;0.50;0.50;;;;;;;15.11;46.50;99702.72;5083859;28;20093;-81
2023/06/06 06:38:37;;;;;;;0.50;0.50;;;;;;;15.27;46.09;99711.06;5082098;28;20410;-81
2023/06/06 06:41:23;;;;;;;0.50;0.50;;;;;;;15.39;46.11;99715.25;5084464;28;20097;-80
2023/06/06 06:43:51;;;;;;;0.40;0.40;;;;;;;15.39;45.31;99698.06;5082495;28;20056;-81
2023/06/06 06:46:19;;;;;;;0.50;0.50;;;;;;;15.41;44.86;99701.38;5080816;28;20051;-81
2023/06/06 06:48:50;;;;;;;0.50;0.50;;;;;;;15.47;44.95;99705.78;5069147;28;20052;-79
2023/06/06 06:51:40;;;;;;;0.50;0.50;;;;;;;15.68;44.75;99698.59;5069123;28;20051;-80
2023/06/06 06:54:28;;;;;;;0.50;0.50;;;;;;;15.58;44.23;99674.84;5093091;28;20091;-81
2023/06/06 07:00:23;;;;;;;0.50;0.50;;;;;;;16.17;44.27;99692.09;5089292;28;20526;-80
2023/06/06 07:03:09;;;;;;;0.50;0.50;;;;;;;16.36;43.52;99698.75;5099120;28;20047;-80
2023/06/06 07:05:39;;;;;;;0.45;0.45;;;;;;;16.12;43.67;99701.06;5080398;28;20052;-81
2023/06/06 07:08:44;;;;;;;0.50;0.50;;;;;;;15.91;43.26;99691.97;5068493;28;20149;-82
2023/06/06 07:11:11;;;;;;;0.50;0.50;;;;;;;15.61;42.60;99668.88;5078977;28;20058;-81
2023/06/06 07:13:57;;;;;;;0.50;0.50;;;;;;;15.73;43.44;99692.41;5088857;28;20117;-81
2023/06/06 07:16:25;;;;;;;0.50;0.50;;;;;;;15.83;42.47;99695.19;5090414;28;20081;-80
2023/06/06 07:18:53;;;;;;;0.50;0.50;;;;;;;15.88;42.56;99678.88;5080274;28;20105;-79
2023/06/06 07:21:21;;;;;;;0.40;0.40;;;;;;;15.92;42.07;99693.59;5072251;28;20495;-80
2023/06/06 07:24:07;;;;;;;0.40;0.40;;;;;;;15.71;42.16;99695.38;5082581;28;20149;-82
2023/06/06 07:29:24;;;;;;;0.50;0.50;;;;;;;16.03;42.22;99706.19;5087653;28;20457;-82
2023/06/06 07:31:52;;;;;;;0.40;0.40;;;;;;;15.91;42.38;99683.81;5094619;28;20452;-80
2023/06/06 07:34:20;;;;;;;0.40;0.40;;;;;;;15.98;42.25;99680.84;5089078;28;20051;-81
2023/06/06 07:36:47;;;;;;;0.40;0.40;;;;;;;16.19;42.57;99689.94;5085717;28;20048;-81
2023/06/06 07:39:33;;;;;;;0.50;0.50;;;;;;;16.44;42.17;99702.88;5068588;28;20055;-81
2023/06/06 07:44:48;;;;;;;0.40;0.40;;;;;;;16.58;41.58;99690.38;5085621;28;20132;-82
2023/06/06 07:47:15;;;;;;;0.40;0.40;;;;;;;16.91;40.91;99685.59;5082886;28;20071;-80
2023/06/06 07:50:02;;;;;;;0.60;0.60;;;;;;;17.21;40.19;99684.00;5089770;28;20050;-81
2023/06/06 07:52:32;;;;;;;0.60;0.60;;;;;;;17.23;39.72;99669.00;5089721;28;20131;-81
2023/06/06 07:55:37;;;;;;;0.60;0.60;;;;;;;17.54;39.44;99688.09;5087073;28;20734;-81
2023/06/06 07:58:10;;;;;;;0.60;0.60;;;;;;;17.69;39.36;99671.69;5084078;28;20047;-81
2023/06/06 08:01:10;;;;;;;0.40;0.40;;;;;;;17.55;39.42;99659.72;5084861;28;20325;-82
2023/06/06 08:03:56;;;;;;;0.50;0.50;;;;;;;18.11;39.39;99680.66;5088547;28;20692;-83
2023/06/06 08:06:42;;;;;;;0.60;0.60;;;;;;;18.12;38.09;99680.38;5089912;28;20560;-81
2023/06/06 08:09:10;;;;;;;0.60;0.60;;;;;;;18.18;37.53;99678.47;5080596;28;20048;-80
2023/06/06 08:11:55;;;;;;;0.50;0.50;;;;;;;18.39;37.44;99676.47;5082657;28;20052;-79
2023/06/06 08:14:41;;;;;;;0.60;0.60;;;;;;;18.38;37.19;99656.53;5074397;28;20132;-80
2023/06/06 08:23:04;;;;;;;0.70;0.70;;;;;;;19.31;36.11;99656.75;5075271;28;20055;-81
2023/06/06 08:25:32;;;;;;;0.70;0.70;;;;;;;19.51;35.85;99674.13;5089196;28;20165;-80
2023/06/06 08:27:59;;;;;;;0.60;0.60;;;;;;;19.59;36.49;99666.09;5068381;28;20132;-81
2023/06/06 08:30:26;;;;;;;0.40;0.40;;;;;;;18.69;37.76;99674.69;5068598;28;20055;-82
2023/06/06 08:32:54;;;;;;;0.40;0.40;;;;;;;18.01;38.55;99665.13;5069144;28;20384;-82
2023/06/06 08:35:40;;;;;;;0.32;0.32;;;;;;;17.59;39.58;99679.91;5068897;28;20052;-82
2023/06/06 08:43:46;;;;;;;0.60;0.60;;;;;;;19.35;35.32;99649.63;5089517;28;20059;-82
2023/06/06 08:46:52;;;;;;;0.60;0.60;;;;;;;20.51;34.02;99656.06;5092783;28;20131;-81
2023/06/06 08:49:20;;;;;;;0.55;0.55;;;;;;;20.81;32.86;99657.59;5092324;28;20110;-82
2023/06/06 08:52:07;;;;;;;0.50;0.50;;;;;;;20.69;33.79;99649.00;5091838;28;20089;-83
2023/06/06 08:54:36;;;;;;;0.30;0.30;;;;;;;19.92;34.41;99647.97;5092109;28;20127;-81
2023/06/06 08:57:08;;;;;;;0.40;0.40;;;;;;;19.19;35.35;99624.31;5075241;28;20044;-81
2023/06/06 08:59:40;;;;;;;0.30;0.30;;;;;;;19.09;35.71;99639.97;5091324;28;20150;-81
2023/06/06 09:02:07;;;;;;;0.70;0.70;;;;;;;19.46;34.97;99640.22;5074612;28;20052;-81
2023/06/06 09:04:35;;;;;;;0.40;0.40;;;;;;;19.75;34.15;99639.44;5092365;28;20458;-81
2023/06/06 09:07:14;;;;;;;0.40;0.40;;;;;;;18.91;35.29;99614.94;5092648;28;20089;-81
2023/06/06 09:09:45;;;;;;;0.40;0.40;;;;;;;19.19;32.79;99639.91;5092477;28;20052;-81
2023/06/06 09:12:13;;;;;;;0.80;0.80;;;;;;;18.82;33.45;99638.53;5091462;28;20060;-81
2023/06/06 09:14:42;;;;;;;0.70;0.70;;;;;;;20.09;32.91;99635.75;5092322;28;20143;-82
2023/06/06 09:17:15;;;;;;;0.40;0.40;;;;;;;21.13;32.68;99604.69;5091048;28;20484;-82
2023/06/06 09:19:46;;;;;;;0.70;0.70;;;;;;;21.94;30.25;99623.56;5074146;28;20091;-80
2023/06/06 09:22:32;;;;;;;0.70;0.70;;;;;;;22.57;29.59;99626.72;5072017;28;20056;-82
2023/06/06 09:24:59;;;;;;;0.70;0.70;;;;;;;22.58;28.30;99612.63;5077093;28;20055;-80
2023/06/06 09:30:35;;;;;;;0.70;0.70;;;;;;;23.03;26.69;99609.16;5081385;28;20529;-81
2023/06/06 09:33:04;;;;;;;0.70;0.70;;;;;;;23.26;26.67;99610.78;5080259;28;20048;-81
2023/06/06 09:38:20;;;;;;;0.70;0.70;;;;;;;23.53;26.58;99607.03;5081854;28;20429;-80
2023/06/06 09:40:50;;;;;;;0.70;0.70;;;;;;;23.62;26.95;99618.09;5071838;28;20044;-81
2023/06/06 09:43:37;;;;;;;0.70;0.70;;;;;;;23.20;27.91;99612.03;5084471;28;20562;-81
2023/06/06 09:49:34;;;;;;;0.70;0.70;;;;;;;23.62;27.60;99603.50;5089318;28;20712;-81
2023/06/06 09:52:23;;;;;;;0.43;0.43;;;;;;;23.06;27.90;99597.53;5082662;28;20059;-80
2023/06/06 09:54:54;;;;;;;0.80;0.80;;;;;;;23.35;27.24;99575.84;5086654;28;20049;-80
2023/06/06 09:57:22;;;;;;;0.80;0.80;;;;;;;24.19;26.34;99598.91;5085793;28;20114;-80
2023/06/06 10:00:15;;;;;;;0.30;0.30;;;;;;;23.58;26.13;99587.63;5081571;28;20491;-80
2023/06/06 10:05:38;;;;;;;0.80;0.80;;;;;;;22.92;27.44;99584.63;5085121;28;20052;-81
2023/06/06 10:08:25;;;;;;;0.80;0.80;;;;;;;23.89;26.38;99591.50;5075613;28;20136;-81
2023/06/06 10:10:54;;;;;;;0.60;0.60;;;;;;;23.84;26.66;99584.19;5077226;28;20060;-80
2023/06/06 10:13:22;;;;;;;0.85;0.85;;;;;;;25.02;25.42;99598.00;5076831;28;20054;-81
2023/06/06 10:16:08;;;;;;;0.57;0.57;;;;;;;24.95;25.51;99600.47;5081840;28;20041;-80
2023/06/06 10:18:37;;;;;;;0.40;0.40;;;;;;;23.57;26.98;99597.03;5065566;28;20047;-81
2023/06/06 10:21:24;;;;;;;0.30;0.30;;;;;;;22.04;29.47;99584.09;5079729;28;20043;-81
2023/06/06 10:23:53;;;;;;;0.30;0.30;;;;;;;21.37;30.57;99585.34;5088422;28;20508;-80
2023/06/06 10:26:25;;;;;;;0.30;0.30;;;;;;;20.82;31.29;99592.59;5091002;28;20056;-80
2023/06/06 10:29:04;;;;;;;0.30;0.30;;;;;;;20.72;30.89;99594.38;5090677;28;20147;-82
2023/06/06 10:31:58;;;;;;;0.30;0.30;;;;;;;20.50;31.60;99583.16;5086392;28;20048;-82
2023/06/06 10:34:33;;;;;;;0.40;0.40;;;;;;;20.47;31.45;99581.00;5064390;28;20048;-81
2023/06/06 10:37:17;;;;;;;0.80;0.80;;;;;;;21.49;29.83;99573.09;5082239;28;20060;-82
2023/06/06 10:45:43;;;;;;;0.80;0.80;;;;;;;25.27;25.26;99581.78;5085647;28;20055;-83
2023/06/06 10:48:40;;;;;;;0.80;0.80;;;;;;;25.40;25.52;99582.72;5070923;28;20047;-84
2023/06/06 10:51:34;;;;;;;0.80;0.80;;;;;;;26.22;24.91;99585.28;5075791;28;20044;-84
2023/06/06 10:54:27;;;;;;;0.30;0.30;;;;;;;24.08;27.23;99583.81;5070477;28;20507;-82
2023/06/06 10:56:55;;;;;;;0.30;0.30;;;;;;;22.28;29.05;99565.47;5070537;28;20364;-83
2023/06/06 10:59:33;;;;;;;0.30;0.30;;;;;;;20.97;31.13;99586.88;5052188;28;20106;-82
2023/06/06 11:02:11;;;;;;;0.30;0.30;;;;;;;20.38;32.05;99599.22;5069273;28;20036;-83
2023/06/06 11:07:27;;;;;;;0.30;0.30;;;;;;;19.57;33.47;99588.09;5069512;28;20419;-83
2023/06/06 11:09:54;;;;;;;0.30;0.30;;;;;;;19.54;33.92;99581.28;5079616;28;20051;-83
2023/06/06 11:15:30;;;;;;;0.40;0.40;;;;;;;19.66;34.19;99583.63;5089086;28;20052;-82
2023/06/06 11:18:03;;;;;;;0.40;0.40;;;;;;;19.81;33.92;99577.19;5089369;28;20117;-82
2023/06/06 11:21:08;;;;;;;0.40;0.40;;;;;;;20.27;33.06;99560.16;5090231;28;20093;-82
2023/06/06 11:23:55;;;;;;;0.50;0.50;;;;;;;20.82;32.82;99582.44;5089118;28;20063;-83
2023/06/06 11:26:22;;;;;;;0.50;0.50;;;;;;;21.03;32.29;99582.91;5088874;28;20060;-83
2023/06/06 11:29:10;;;;;;;0.60;0.60;;;;;;;21.39;31.99;99583.13;5089090;28;20051;-83
2023/06/06 11:31:43;;;;;;;0.50;0.50;;;;;;;21.76;31.48;99569.56;5088771;28;20732;-83
2023/06/06 11:34:12;;;;;;;1.10;1.10;;;;;;;22.85;30.04;99537.44;5071505;28;20060;-83
2023/06/06 11:36:59;;;;;;;0.50;0.50;;;;;;;23.35;29.30;99558.53;5052272;28;20052;-83
2023/06/06 11:42:41;;;;;;;0.65;0.65;;;;;;;26.29;26.97;99577.28;5080500;28;20048;-83
2023/06/06 11:45:16;;;;;;;0.80;0.80;;;;;;;25.43;26.36;99548.88;5086023;28;20129;-85
2023/06/06 11:47:49;;;;;;;0.80;0.80;;;;;;;25.62;26.39;99562.28;5062676;28;20134;-83
2023/06/06 11:50:26;;;;;;;0.70;0.70;;;;;;;26.61;25.53;99586.81;5085476;28;20090;-84
2023/06/06 11:52:54;;;;;;;0.70;0.70;;;;;;;26.87;25.37;99569.22;5061868;28;20088;-83
2023/06/06 11:55:34;;;;;;;0.82;0.82;;;;;;;25.94;25.58;99571.94;5088424;28;20048;-84
2023/06/06 11:58:04;;;;;;;0.80;0.80;;;;;;;26.21;25.92;99545.75;5089955;28;20131;-83
2023/06/06 12:00:33;;;;;;;0.50;0.50;;;;;;;26.59;25.18;99537.34;5072002;28;20071;-84
2023/06/06 12:03:01;;;;;;;0.30;0.30;;;;;;;25.72;26.23;99576.56;5088504;28;20591;-84
2023/06/06 12:05:30;;;;;;;0.20;0.20;;;;;;;24.12;27.58;99537.09;5089321;28;20052;-85
2023/06/06 12:07:59;;;;;;;0.30;0.30;;;;;;;22.48;30.54;99544.94;5089989;28;20138;-83
2023/06/06 12:10:31;;;;;;;0.30;0.30;;;;;;;21.99;31.54;99549.28;5087719;28;20043;-83
2023/06/06 12:13:38;;;;;;;0.40;0.40;;;;;;;22.36;30.82;99566.66;5079583;28;20072;-82
2023/06/06 12:16:24;;;;;;;0.30;0.30;;;;;;;22.00;31.66;99534.44;5080282;28;20044;-83
2023/06/06 12:18:51;;;;;;;0.80;0.80;;;;;;;21.99;32.03;99563.03;5079481;28;20060;-83
2023/06/06 12:21:22;;;;;;;0.90;0.90;;;;;;;25.18;27.93;99551.41;5084246;28;20041;-82
2023/06/06 12:24:17;;;;;;;0.82;0.82;;;;;;;26.61;26.43;99550.84;5074574;28;20044;-82
2023/06/06 12:26:59;;;;;;;0.80;0.80;;;;;;;26.80;26.01;99529.00;5093701;28;20143;-84
2023/06/06 12:29:30;;;;;;;0.70;0.70;;;;;;;27.48;24.63;99530.59;5092280;28;20058;-83
2023/06/06 12:32:18;;;;;;;0.80;0.80;;;;;;;28.43;23.93;99531.22;5094106;28;20048;-85
2023/06/06 12:34:59;;;;;;;0.60;0.60;;;;;;;29.06;23.31;99535.44;5092304;28;20067;-84
2023/06/06 12:37:41;;;;;;;0.20;0.20;;;;;;;25.89;25.93;99539.75;5076243;28;20136;-82
2023/06/06 12:40:13;;;;;;;0.20;0.20;;;;;;;23.24;29.40;99533.16;5087346;28;20453;-83
2023/06/06 12:42:53;;;;;;;0.20;0.20;;;;;;;22.48;30.78;99533.13;5092291;28;20048;-83
2023/06/06 12:45:24;;;;;;;0.30;0.30;;;;;;;21.88;31.18;99522.31;5092281;28;20075;-83
2023/06/06 12:47:52;;;;;;;0.20;0.20;;;;;;;21.48;32.06;99536.56;5080365;28;20116;-84
2023/06/06 12:50:21;;;;;;;0.20;0.20;;;;;;;21.38;32.46;99534.00;5094951;28;20507;-83
2023/06/06 12:52:49;;;;;;;0.30;0.30;;;;;;;21.54;31.96;99524.38;5093540;28;20055;-85
2023/06/06 12:55:22;;;;;;;0.30;0.30;;;;;;;21.93;31.79;99528.53;5084549;28;20063;-83
2023/06/06 12:57:49;;;;;;;0.40;0.40;;;;;;;22.72;30.72;99525.38;5084099;28;20102;-84
2023/06/06 13:00:17;;;;;;;0.30;0.30;;;;;;;22.93;30.13;99508.38;5082155;28;20052;-84
2023/06/06 13:05:53;;;;;;;0.90;0.90;;;;;;;26.66;26.40;99511.88;5082142;28;20048;-83
2023/06/06 13:08:21;;;;;;;0.40;0.40;;;;;;;27.27;25.07;99499.38;5057723;28;20070;-85
2023/06/06 13:11:07;;;;;;;0.70;0.70;;;;;;;29.53;22.52;99506.88;5082369;28;20568;-83